createdAt,value
2017-08-02T00:00:38.075Z,21.50
2017-08-02T00:03:13.287Z,21.50
2017-08-02T00:05:48.853Z,21.40
2017-08-02T00:08:23.807Z,21.40
2017-08-02T00:10:59.095Z,21.40
2017-08-02T00:13:34.181Z,21.40
2017-08-02T00:16:09.345Z,21.50
2017-08-02T00:18:44.857Z,21.50
2017-08-02T00:21:20.076Z,21.50
2017-08-02T00:23:55.489Z,21.40
2017-08-02T00:26:30.941Z,21.40
2017-08-02T00:29:05.708Z,21.50
2017-08-02T00:31:40.484Z,21.50
2017-08-02T00:34:15.399Z,21.50
2017-08-02T00:36:50.164Z,21.40
2017-08-02T00:39:24.972Z,21.10
2017-08-02T00:41:59.770Z,21.10
2017-08-02T00:44:34.683Z,21.20
2017-08-02T00:47:09.489Z,21.20
2017-08-02T00:49:44.409Z,21.30
2017-08-02T00:52:19.160Z,21.10
2017-08-02T00:54:53.999Z,21.00
2017-08-02T00:57:28.884Z,21.10
2017-08-02T01:00:03.939Z,21.10
2017-08-02T01:02:38.756Z,21.20
2017-08-02T01:05:13.740Z,21.40
2017-08-02T01:07:48.729Z,21.30
2017-08-02T01:10:23.612Z,21.10
2017-08-02T01:12:58.539Z,21.20
2017-08-02T01:15:33.349Z,21.10
2017-08-02T01:18:08.128Z,21.30
2017-08-02T01:20:44.947Z,21.20
2017-08-02T01:23:19.835Z,21.20
2017-08-02T01:25:54.676Z,21.20
2017-08-02T01:28:29.552Z,21.30
2017-08-02T01:31:04.456Z,21.20
2017-08-02T01:33:39.363Z,21.40
2017-08-02T01:36:14.314Z,21.40
2017-08-02T01:38:49.383Z,21.30
2017-08-02T01:41:24.500Z,21.30
2017-08-02T01:43:59.296Z,21.20
2017-08-02T01:46:34.773Z,21.10
2017-08-02T01:49:09.544Z,21.20
2017-08-02T01:51:44.472Z,21.10
2017-08-02T01:54:19.239Z,21.10
2017-08-02T01:56:54.098Z,21.10
2017-08-02T01:59:28.971Z,21.10
2017-08-02T02:02:03.987Z,20.80
2017-08-02T02:04:38.872Z,20.60
2017-08-02T02:07:13.676Z,20.70
2017-08-02T02:09:49.588Z,20.60
2017-08-02T02:12:24.516Z,20.70
2017-08-02T02:14:59.432Z,20.90
2017-08-02T02:17:34.350Z,21.00
2017-08-02T02:20:09.116Z,20.70
2017-08-02T02:22:43.931Z,20.40
2017-08-02T02:25:18.732Z,20.50
2017-08-02T02:27:53.516Z,20.30
2017-08-02T02:30:28.293Z,20.30
2017-08-02T02:33:03.080Z,20.50
2017-08-02T02:35:38.014Z,20.40
2017-08-02T02:38:12.814Z,20.50
2017-08-02T02:40:47.746Z,20.70
2017-08-02T02:43:22.651Z,20.80
2017-08-02T02:45:57.425Z,20.90
2017-08-02T02:48:32.256Z,20.90
2017-08-02T02:51:07.139Z,21.00
2017-08-02T02:53:41.919Z,20.90
2017-08-02T02:56:16.875Z,21.00
2017-08-02T02:58:51.791Z,21.00
2017-08-02T03:01:26.688Z,21.10
2017-08-02T03:04:01.596Z,21.10
2017-08-02T03:06:36.500Z,21.10
2017-08-02T03:09:11.319Z,21.10
2017-08-02T03:11:46.100Z,21.10
2017-08-02T03:14:20.932Z,21.20
2017-08-02T03:16:55.695Z,21.10
2017-08-02T03:19:30.487Z,21.00
2017-08-02T03:22:05.400Z,21.00
2017-08-02T03:24:40.217Z,21.20
2017-08-02T03:27:15.128Z,20.90
2017-08-02T03:29:50.076Z,21.00
2017-08-02T03:32:24.868Z,21.00
2017-08-02T03:34:59.789Z,21.10
2017-08-02T03:37:34.604Z,21.10
2017-08-02T03:40:10.358Z,21.20
2017-08-02T03:42:45.137Z,21.20
2017-08-02T03:45:20.932Z,21.00
2017-08-02T03:47:55.837Z,21.30
2017-08-02T03:50:30.599Z,21.10
2017-08-02T03:53:05.507Z,21.10
2017-08-02T03:55:40.300Z,21.00
2017-08-02T03:58:15.063Z,21.20
2017-08-02T04:00:49.969Z,21.10
2017-08-02T04:03:24.882Z,21.20
2017-08-02T04:05:59.836Z,21.20
2017-08-02T04:08:34.739Z,21.30
2017-08-02T04:11:09.524Z,21.30
2017-08-02T04:13:44.428Z,21.30
2017-08-02T04:16:19.339Z,21.30
2017-08-02T04:18:54.103Z,21.40
2017-08-02T04:21:28.908Z,21.40
2017-08-02T04:24:03.677Z,21.40
2017-08-02T04:26:38.487Z,21.30
2017-08-02T04:29:13.276Z,21.30
2017-08-02T04:31:48.228Z,21.40
2017-08-02T04:34:23.140Z,21.40
2017-08-02T04:36:58.072Z,21.40
2017-08-02T04:39:32.919Z,21.30
2017-08-02T04:42:07.808Z,21.40
2017-08-02T04:44:42.576Z,21.40
2017-08-02T04:47:17.384Z,21.30
2017-08-02T04:49:52.172Z,21.50
2017-08-02T04:52:26.960Z,21.20
2017-08-02T04:55:01.742Z,21.30
2017-08-02T04:57:36.541Z,21.10
2017-08-02T05:00:11.304Z,21.40
2017-08-02T05:02:46.217Z,21.60
2017-08-02T05:05:21.000Z,21.50
2017-08-02T05:07:55.797Z,21.70
2017-08-02T05:10:30.584Z,21.70
2017-08-02T05:13:05.372Z,21.90
2017-08-02T05:15:40.261Z,21.40
2017-08-02T05:18:15.180Z,21.70
2017-08-02T05:20:51.872Z,21.80
2017-08-02T05:23:26.796Z,21.70
2017-08-02T05:26:01.569Z,21.80
2017-08-02T05:28:36.475Z,21.90
2017-08-02T05:31:11.312Z,21.80
2017-08-02T05:33:50.838Z,21.70
2017-08-02T05:36:25.736Z,21.60
2017-08-02T05:39:00.648Z,21.90
2017-08-02T05:41:35.424Z,22.10
2017-08-02T05:44:10.239Z,22.20
2017-08-02T05:46:45.016Z,22.40
2017-08-02T05:49:19.913Z,22.60
2017-08-02T05:51:55.458Z,22.70
2017-08-02T05:54:30.244Z,22.80
2017-08-02T05:57:05.206Z,22.80
2017-08-02T05:59:40.006Z,22.50
2017-08-02T06:02:14.836Z,22.70
2017-08-02T06:04:49.626Z,22.70
2017-08-02T06:07:24.530Z,22.80
2017-08-02T06:09:59.335Z,23.00
2017-08-02T06:12:34.096Z,23.20
2017-08-02T06:15:09.001Z,23.00
2017-08-02T06:17:43.911Z,23.10
2017-08-02T06:20:18.700Z,23.30
2017-08-02T06:22:53.500Z,23.30
2017-08-02T06:25:28.300Z,23.40
2017-08-02T06:28:03.240Z,23.70
2017-08-02T07:06:04.393Z,25.00
2017-08-02T07:17:44.904Z,25.80
2017-08-02T07:20:20.216Z,26.00
2017-08-02T07:22:55.027Z,25.50
2017-08-02T07:25:29.788Z,25.60
2017-08-02T07:28:04.586Z,26.00
2017-08-02T07:30:39.382Z,26.40
2017-08-02T07:33:18.376Z,26.50
2017-08-02T07:35:53.266Z,27.00
2017-08-02T07:38:28.204Z,26.90
2017-08-02T07:41:03.152Z,27.10
2017-08-02T07:43:37.972Z,27.20
2017-08-02T07:46:12.748Z,27.40
2017-08-02T07:48:47.680Z,27.30
2017-08-02T07:51:22.601Z,27.40
2017-08-02T07:53:57.604Z,27.40
2017-08-02T07:56:32.532Z,27.50
2017-08-02T07:59:07.340Z,28.00
2017-08-02T08:01:42.254Z,27.80
2017-08-02T08:04:19.044Z,28.20
2017-08-02T08:06:53.898Z,28.30
2017-08-02T08:09:28.771Z,28.60
2017-08-02T08:12:03.659Z,28.30
2017-08-02T08:14:38.599Z,28.50
2017-08-02T08:17:13.417Z,28.80
2017-08-02T08:19:48.200Z,29.10
2017-08-02T08:22:23.165Z,29.40
2017-08-02T08:24:58.137Z,29.30
2017-08-02T08:27:33.036Z,29.70
2017-08-02T08:30:11.792Z,30.20
2017-08-02T08:32:46.712Z,30.40
2017-08-02T08:35:21.636Z,30.90
2017-08-02T08:37:56.397Z,30.70
2017-08-02T08:40:31.351Z,30.40
2017-08-02T08:43:06.318Z,30.10
2017-08-02T08:45:41.138Z,30.50
2017-08-02T08:48:15.964Z,30.40
2017-08-02T08:50:50.913Z,30.50
2017-08-02T08:53:25.693Z,30.70
2017-08-02T08:56:00.509Z,30.90
2017-08-02T08:58:35.295Z,31.20
2017-08-02T09:01:10.133Z,30.70
2017-08-02T09:03:44.920Z,30.30
2017-08-02T09:06:19.713Z,30.30
2017-08-02T09:08:54.492Z,30.30
2017-08-02T09:11:29.404Z,30.30
2017-08-02T09:14:04.172Z,30.40
2017-08-02T09:16:38.990Z,30.80
2017-08-02T09:19:14.207Z,30.70
2017-08-02T09:21:48.984Z,31.10
2017-08-02T09:24:23.750Z,31.30
2017-08-02T09:26:58.661Z,31.00
2017-08-02T09:29:33.555Z,31.20
2017-08-02T09:32:08.486Z,31.20
2017-08-02T09:34:43.362Z,31.20
2017-08-02T09:37:18.157Z,31.30
2017-08-02T09:39:53.100Z,31.50
2017-08-02T09:42:27.925Z,31.80
2017-08-02T09:45:02.700Z,31.60
2017-08-02T09:47:37.496Z,31.90
2017-08-02T09:50:12.259Z,32.10
2017-08-02T09:52:47.192Z,32.30
2017-08-02T09:55:22.006Z,32.60
2017-08-02T09:57:56.836Z,32.40
2017-08-02T10:00:31.788Z,32.90
2017-08-02T10:03:06.564Z,32.80
2017-08-02T10:05:41.455Z,33.20
2017-08-02T10:08:16.273Z,33.50
2017-08-02T10:10:51.156Z,33.90
2017-08-02T10:13:25.983Z,34.20
2017-08-02T10:16:00.757Z,34.90
2017-08-02T10:18:35.672Z,34.50
2017-08-02T10:21:10.559Z,33.80
2017-08-02T10:23:45.460Z,33.20
2017-08-02T10:26:20.400Z,33.80
2017-08-02T10:28:55.183Z,33.20
2017-08-02T10:31:30.108Z,33.30
2017-08-02T10:34:05.040Z,33.60
2017-08-02T10:36:39.824Z,34.50
2017-08-02T10:39:14.632Z,34.70
2017-08-02T10:41:49.606Z,35.10
2017-08-02T10:44:24.484Z,35.60
2017-08-02T10:46:59.248Z,35.50
2017-08-02T10:49:34.039Z,36.30
2017-08-02T10:52:08.942Z,36.00
2017-08-02T10:54:43.843Z,35.80
2017-08-02T10:57:18.738Z,36.30
2017-08-02T10:59:53.660Z,36.20
2017-08-02T11:02:28.549Z,37.10
2017-08-02T11:05:03.495Z,37.60
2017-08-02T11:07:38.296Z,38.10
2017-08-02T11:10:14.676Z,37.30
2017-08-02T11:12:49.664Z,36.40
2017-08-02T11:15:24.437Z,35.20
2017-08-02T11:18:00.280Z,35.10
2017-08-02T11:20:35.076Z,34.70
2017-08-02T11:23:09.836Z,35.10
2017-08-02T11:25:44.736Z,35.00
2017-08-02T11:28:19.632Z,35.00
2017-08-02T11:30:54.421Z,35.90
2017-08-02T11:33:29.191Z,36.90
2017-08-02T11:36:04.181Z,37.20
2017-08-02T11:38:39.443Z,37.10
2017-08-02T11:41:14.796Z,37.00
2017-08-02T11:43:49.871Z,37.20
2017-08-02T11:46:24.832Z,37.10
2017-08-02T11:48:59.750Z,37.30
2017-08-02T11:51:34.552Z,36.60
2017-08-02T11:54:09.464Z,37.20
2017-08-02T11:56:44.368Z,36.80
2017-08-02T11:59:19.151Z,37.10
2017-08-02T12:01:53.944Z,38.00
2017-08-02T12:04:28.860Z,38.60
2017-08-02T12:07:03.781Z,38.70
2017-08-02T12:09:38.544Z,37.40
2017-08-02T12:12:13.341Z,37.90
2017-08-02T12:14:48.237Z,38.10
2017-08-02T12:17:23.022Z,38.70
2017-08-02T12:19:57.920Z,39.30
2017-08-02T12:22:32.700Z,38.80
2017-08-02T12:25:07.598Z,38.40
2017-08-02T12:27:42.540Z,36.70
2017-08-02T12:30:17.440Z,38.40
2017-08-02T12:32:52.235Z,39.30
2017-08-02T12:35:27.062Z,39.70
2017-08-02T12:38:01.833Z,40.50
2017-08-02T12:40:36.766Z,42.10
2017-08-02T12:43:11.672Z,42.50
2017-08-02T12:45:46.612Z,41.90
2017-08-02T12:48:21.412Z,41.30
2017-08-02T12:50:56.200Z,41.70
2017-08-02T12:53:31.143Z,42.70
2017-08-02T12:56:06.029Z,43.20
2017-08-02T12:58:40.993Z,43.70
2017-08-02T13:01:15.745Z,44.60
2017-08-02T13:03:50.652Z,44.80
2017-08-02T13:06:25.580Z,45.10
2017-08-02T13:09:00.380Z,45.20
2017-08-02T13:11:35.273Z,45.20
2017-08-02T13:14:10.193Z,43.90
2017-08-02T13:16:45.076Z,42.40
2017-08-02T13:19:19.992Z,41.10
2017-08-02T13:21:54.892Z,40.60
2017-08-02T13:24:29.789Z,39.20
2017-08-02T13:27:04.708Z,38.90
2017-08-02T13:29:39.508Z,41.00
2017-08-02T13:32:14.391Z,40.40
2017-08-02T13:34:49.288Z,38.80
2017-08-02T13:37:24.175Z,40.00
2017-08-02T13:39:58.980Z,40.90
2017-08-02T13:42:33.876Z,43.20
2017-08-02T13:45:08.782Z,43.70
2017-08-02T13:47:43.560Z,41.10
2017-08-02T13:50:18.412Z,40.70
2017-08-02T13:52:53.325Z,40.70
2017-08-02T13:55:29.331Z,40.30
2017-08-02T13:58:26.161Z,40.30
2017-08-02T14:01:01.503Z,40.00
2017-08-02T14:03:36.267Z,40.80
2017-08-02T14:06:11.184Z,41.50
2017-08-02T14:08:46.080Z,42.80
2017-08-02T14:11:21.031Z,43.50
2017-08-02T14:13:55.915Z,43.60
2017-08-02T14:16:30.715Z,42.00
2017-08-02T14:19:05.683Z,40.70
2017-08-02T14:21:40.554Z,41.20
2017-08-02T14:24:18.894Z,41.80
2017-08-02T14:26:54.807Z,42.00
2017-08-02T14:29:29.702Z,42.70
2017-08-02T14:32:04.998Z,42.90
2017-08-02T14:34:40.913Z,43.40
2017-08-02T14:37:16.116Z,42.10
2017-08-02T14:39:52.043Z,41.10
2017-08-02T14:42:26.922Z,41.40
2017-08-02T14:45:02.133Z,41.80
2017-08-02T14:47:37.544Z,42.40
2017-08-02T14:50:12.698Z,42.40
2017-08-02T14:52:47.951Z,42.20
2017-08-02T14:55:22.823Z,41.40
2017-08-02T14:57:57.959Z,40.00
2017-08-02T15:00:32.925Z,39.70
2017-08-02T15:03:08.009Z,39.80
2017-08-02T15:05:43.747Z,40.40
2017-08-02T15:08:18.677Z,40.20
2017-08-02T15:10:53.709Z,39.90
2017-08-02T15:13:28.671Z,39.10
2017-08-02T15:16:05.272Z,38.90
2017-08-02T15:18:40.306Z,38.50
2017-08-02T15:21:15.176Z,38.20
2017-08-02T15:23:50.242Z,38.10
2017-08-02T15:26:25.485Z,37.80
2017-08-02T15:29:13.338Z,37.60
2017-08-02T15:31:48.608Z,37.70
2017-08-02T15:34:25.086Z,37.90
2017-08-02T15:37:02.143Z,37.60
2017-08-02T15:39:37.232Z,37.80
2017-08-02T15:42:12.023Z,37.40
2017-08-02T15:44:46.861Z,36.40
2017-08-02T15:47:21.705Z,35.90
2017-08-02T15:49:56.648Z,35.40
2017-08-02T15:52:31.569Z,35.50
2017-08-02T15:55:08.223Z,35.30
2017-08-02T15:57:44.054Z,35.00
2017-08-02T16:00:20.891Z,35.20
2017-08-02T16:02:55.703Z,35.00
2017-08-02T16:05:30.498Z,34.60
2017-08-02T16:08:05.299Z,34.50
2017-08-02T16:10:40.279Z,34.10
2017-08-02T16:13:15.040Z,34.10
2017-08-02T16:15:50.127Z,34.00
2017-08-02T16:18:26.849Z,34.60
2017-08-02T16:21:01.763Z,35.20
2017-08-02T16:23:37.855Z,35.30
2017-08-02T16:26:12.786Z,35.20
2017-08-02T16:28:51.376Z,34.80
2017-08-02T16:31:26.323Z,34.30
2017-08-02T16:34:01.123Z,33.80
2017-08-02T16:36:36.045Z,33.00
2017-08-02T16:39:11.036Z,32.70
2017-08-02T16:41:45.966Z,32.10
2017-08-02T16:44:20.742Z,32.00
2017-08-02T16:46:56.516Z,31.80
2017-08-02T16:49:48.914Z,31.80
2017-08-02T16:52:23.925Z,31.40
2017-08-02T16:55:17.920Z,31.30
2017-08-02T16:57:55.536Z,31.30
2017-08-02T17:00:30.310Z,31.00
2017-08-02T17:03:05.491Z,30.80
2017-08-02T17:05:53.036Z,30.80
2017-08-02T17:08:29.027Z,30.70
2017-08-02T17:11:04.528Z,30.70
2017-08-02T17:13:50.780Z,30.40
2017-08-02T17:16:38.722Z,30.50
2017-08-02T17:19:14.002Z,30.10
2017-08-02T17:21:55.613Z,30.10
2017-08-02T17:24:30.725Z,29.80
2017-08-02T17:27:05.796Z,29.80
2017-08-02T17:29:44.239Z,29.70
2017-08-02T17:32:20.063Z,29.50
2017-08-02T17:35:02.040Z,29.70
2017-08-02T17:37:37.177Z,29.50
2017-08-02T17:40:12.857Z,29.60
2017-08-02T17:42:47.763Z,29.50
2017-08-02T17:45:22.688Z,29.30
2017-08-02T17:47:57.469Z,29.10
2017-08-02T17:50:33.575Z,29.00
2017-08-02T17:53:08.555Z,28.90
2017-08-02T17:55:43.365Z,28.90
2017-08-02T17:58:18.170Z,28.60
2017-08-02T18:00:52.967Z,28.60
2017-08-02T18:03:27.765Z,28.50
2017-08-02T18:06:02.569Z,28.30
2017-08-02T18:08:37.503Z,28.20
2017-08-02T18:11:12.326Z,27.90
2017-08-02T18:13:47.207Z,27.40
2017-08-02T18:16:21.996Z,27.60
2017-08-02T18:18:56.780Z,27.30
2017-08-02T18:21:31.545Z,27.10
2017-08-02T18:24:06.455Z,27.30
2017-08-02T18:26:41.377Z,27.10
2017-08-02T18:29:16.275Z,26.80
2017-08-02T18:31:51.133Z,26.90
2017-08-02T18:34:25.879Z,26.90
2017-08-02T18:37:00.803Z,26.90
2017-08-02T18:39:35.573Z,26.80
2017-08-02T18:42:10.372Z,27.00
2017-08-02T18:44:45.283Z,26.80
2017-08-02T18:47:20.081Z,26.00
2017-08-02T18:49:54.973Z,26.30
2017-08-02T18:52:29.767Z,26.10
2017-08-02T18:55:04.676Z,26.10
2017-08-02T18:57:39.652Z,26.20
2017-08-02T19:00:14.416Z,26.20
2017-08-02T19:02:49.343Z,25.80
2017-08-02T19:05:24.137Z,25.90
2017-08-02T19:07:58.987Z,25.70
2017-08-02T19:10:33.769Z,25.80
2017-08-02T19:13:08.535Z,25.70
2017-08-02T19:15:43.291Z,25.70
2017-08-02T19:18:18.229Z,25.70
2017-08-02T19:20:53.016Z,25.30
2017-08-02T19:23:27.994Z,25.40
2017-08-02T19:26:02.807Z,25.40
2017-08-02T19:28:41.501Z,25.10
2017-08-02T19:31:17.182Z,25.20
2017-08-02T19:33:52.092Z,25.20
2017-08-02T19:36:27.007Z,25.00
2017-08-02T19:39:01.896Z,25.10
2017-08-02T19:41:39.722Z,25.00
2017-08-02T19:44:14.609Z,24.90
2017-08-02T19:46:49.442Z,24.70
2017-08-02T19:49:25.308Z,24.60
2017-08-02T19:52:01.032Z,24.40
2017-08-02T19:54:36.975Z,24.50
2017-08-02T19:57:16.433Z,24.30
2017-08-02T20:00:03.526Z,24.40
2017-08-02T20:02:39.611Z,24.50
2017-08-02T20:05:19.098Z,24.50
2017-08-02T20:07:54.065Z,24.40
2017-08-02T20:10:32.224Z,24.50
2017-08-02T20:13:08.395Z,24.10
2017-08-02T20:15:44.248Z,24.20
2017-08-02T20:18:19.426Z,24.10
2017-08-02T20:20:57.301Z,23.90
2017-08-02T20:23:32.430Z,24.00
2017-08-02T20:26:08.232Z,23.80
2017-08-02T20:28:48.968Z,23.80
2017-08-02T20:31:26.816Z,24.00
2017-08-02T20:34:04.282Z,23.80
2017-08-02T20:36:55.031Z,23.80
2017-08-02T20:39:32.291Z,23.80
2017-08-02T20:42:09.146Z,23.80
2017-08-02T20:44:43.976Z,23.70
2017-08-02T20:47:19.226Z,23.60
2017-08-02T20:49:54.109Z,23.60
2017-08-02T20:52:28.905Z,23.70
2017-08-02T20:55:21.962Z,23.60
2017-08-02T20:57:58.176Z,23.40
2017-08-02T21:01:19.525Z,23.40
2017-08-02T21:04:02.309Z,23.40
2017-08-02T21:06:37.317Z,23.40
2017-08-02T21:09:12.660Z,23.50
2017-08-02T21:11:47.941Z,23.50
2017-08-02T21:14:23.125Z,23.40
2017-08-02T21:16:58.191Z,23.50
2017-08-02T21:19:33.204Z,23.20
2017-08-02T21:22:18.553Z,23.20
2017-08-02T21:24:54.028Z,23.20
2017-08-02T21:27:29.044Z,23.10
2017-08-02T21:30:04.331Z,23.00
2017-08-02T21:32:39.745Z,23.10
2017-08-02T21:35:15.399Z,23.10
2017-08-02T21:37:51.540Z,23.00
2017-08-02T21:40:27.269Z,22.90
2017-08-02T21:43:02.336Z,22.90
2017-08-02T21:45:37.524Z,22.90
2017-08-02T21:48:12.486Z,22.90
2017-08-02T21:50:47.494Z,22.80
2017-08-02T21:53:22.994Z,22.70
2017-08-02T21:55:58.424Z,22.70
2017-08-02T21:58:34.054Z,22.70
2017-08-02T22:01:27.000Z,22.70
2017-08-02T22:04:02.102Z,22.60
2017-08-02T22:06:37.397Z,22.70
2017-08-02T22:09:12.287Z,22.70
2017-08-02T22:11:47.203Z,22.80
2017-08-02T22:14:24.392Z,22.80
2017-08-02T22:16:59.720Z,22.80
2017-08-02T22:19:34.784Z,22.70
2017-08-02T22:22:10.359Z,22.60
2017-08-02T22:24:45.813Z,22.50
2017-08-02T22:27:20.918Z,22.60
2017-08-02T22:29:55.771Z,22.70
2017-08-02T22:32:30.597Z,22.50
2017-08-02T22:35:05.505Z,22.50
2017-08-02T22:37:40.433Z,22.50
2017-08-02T22:40:15.332Z,22.50
2017-08-02T22:42:50.152Z,22.50
2017-08-02T22:45:25.047Z,22.40
2017-08-02T22:47:59.968Z,22.40
2017-08-02T22:50:34.887Z,22.50
2017-08-02T22:53:13.561Z,22.40
2017-08-02T22:55:58.019Z,22.50
2017-08-02T22:58:34.943Z,22.40
2017-08-02T23:01:13.772Z,22.40
2017-08-02T23:03:50.681Z,22.40
2017-08-02T23:06:25.620Z,22.50
2017-08-02T23:09:03.879Z,22.40
2017-08-02T23:11:38.880Z,22.20
2017-08-02T23:14:13.652Z,22.20
2017-08-02T23:16:48.485Z,22.20
2017-08-02T23:19:23.398Z,22.30
2017-08-02T23:21:58.301Z,22.30
2017-08-02T23:24:33.148Z,22.20
2017-08-02T23:27:09.447Z,22.10
2017-08-02T23:29:45.527Z,22.10
2017-08-02T23:32:20.460Z,22.00
2017-08-02T23:34:56.240Z,22.20
2017-08-02T23:37:31.949Z,22.10
2017-08-02T23:40:07.047Z,22.10
2017-08-02T23:42:42.911Z,22.00
2017-08-02T23:45:17.709Z,22.00
2017-08-02T23:47:52.482Z,22.00
2017-08-02T23:50:27.375Z,22.00
2017-08-02T23:53:02.272Z,22.00
2017-08-02T23:55:37.202Z,22.00
2017-08-02T23:58:12.121Z,22.00
